createdAt,value
2023-03-16T00:00:52.927Z,1005
2023-03-16T00:03:25.512Z,1005
2023-03-16T00:04:41.818Z,1005
2023-03-16T00:05:58.116Z,1005
2023-03-16T00:07:14.410Z,1005
2023-03-16T00:08:30.696Z,1005
2023-03-16T00:09:46.986Z,1005.1
2023-03-16T00:11:03.296Z,1005
2023-03-16T00:12:19.582Z,1005
2023-03-16T00:13:35.884Z,1005
2023-03-16T00:16:07.488Z,1005.1
2023-03-16T00:17:22.811Z,1005
2023-03-16T00:18:38.111Z,1005.1
2023-03-16T00:19:54.412Z,1005
2023-03-16T00:21:10.700Z,1005
2023-03-16T00:22:27.005Z,1005
2023-03-16T00:23:43.295Z,1004.9
2023-03-16T00:24:59.578Z,1005.1
2023-03-16T00:26:15.873Z,1005
2023-03-16T00:27:32.175Z,1005
2023-03-16T00:28:48.463Z,1005.1
2023-03-16T00:31:21.065Z,1005.1
2023-03-16T00:32:37.360Z,1005
2023-03-16T00:33:53.649Z,1005.1
2023-03-16T00:35:08.971Z,1005
2023-03-16T00:36:25.265Z,1005.1
2023-03-16T00:37:41.559Z,1005
2023-03-16T00:38:57.847Z,1005
2023-03-16T00:40:14.139Z,1005
2023-03-16T00:41:30.446Z,1005
2023-03-16T00:42:46.733Z,1005
2023-03-16T00:44:03.027Z,1005.1
2023-03-16T00:46:34.648Z,1005.1
2023-03-16T00:47:49.966Z,1005.1
2023-03-16T00:49:06.260Z,1005.1
2023-03-16T00:50:22.000Z,1005.2
2023-03-16T00:51:37.866Z,1005.2
2023-03-16T00:52:54.148Z,1005.1
2023-03-16T00:54:10.446Z,1005.2
2023-03-16T00:55:26.756Z,1005.2
2023-03-16T00:56:43.056Z,1005.2
2023-03-16T00:57:58.353Z,1005.2
2023-03-16T00:59:13.676Z,1005.2
2023-03-16T01:01:46.273Z,1005.2
2023-03-16T01:03:02.565Z,1005.2
2023-03-16T01:04:18.852Z,1005.2
2023-03-16T01:05:35.142Z,1005.2
2023-03-16T01:06:51.452Z,1005.2
2023-03-16T01:08:07.741Z,1005.3
2023-03-16T01:09:24.044Z,1005.2
2023-03-16T01:10:40.339Z,1005.2
2023-03-16T01:11:56.624Z,1005.2
2023-03-16T01:13:12.923Z,1005.2
2023-03-16T01:14:29.210Z,1005.2
2023-03-16T01:15:44.521Z,1005.2
2023-03-16T01:17:00.818Z,1005.2
2023-03-16T01:18:17.110Z,1005.2
2023-03-16T01:19:33.407Z,1005.2
2023-03-16T01:20:49.701Z,1005.2
2023-03-16T01:22:06.013Z,1005.2
2023-03-16T01:23:22.293Z,1005.1
2023-03-16T01:24:38.587Z,1005.1
2023-03-16T01:25:55.027Z,1005.1
2023-03-16T01:27:10.353Z,1005.1
2023-03-16T01:28:26.642Z,1005.1
2023-03-16T01:29:42.932Z,1005.1
2023-03-16T01:30:59.239Z,1005.1
2023-03-16T01:32:15.524Z,1005.2
2023-03-16T01:33:31.828Z,1005.2
2023-03-16T01:34:48.114Z,1005.2
2023-03-16T01:36:04.407Z,1005.2
2023-03-16T01:37:20.712Z,1005.2
2023-03-16T01:38:37.006Z,1005.1
2023-03-16T01:39:53.295Z,1005.2
2023-03-16T01:41:09.588Z,1005.2
2023-03-16T01:42:25.889Z,1005.2
2023-03-16T01:43:41.209Z,1005.2
2023-03-16T01:44:57.494Z,1005.2
2023-03-16T01:46:13.790Z,1005.1
2023-03-16T01:47:30.082Z,1005.2
2023-03-16T01:48:46.372Z,1005.1
2023-03-16T01:50:02.669Z,1005.2
2023-03-16T01:51:18.963Z,1005.1
2023-03-16T01:52:35.260Z,1005.1
2023-03-16T01:55:07.855Z,1005.1
2023-03-16T01:56:24.158Z,1005.1
2023-03-16T01:57:40.455Z,1005
2023-03-16T01:58:56.738Z,1005.1
2023-03-16T02:00:12.056Z,1005.1
2023-03-16T02:01:28.357Z,1005.1
2023-03-16T02:02:44.642Z,1005.1
2023-03-16T02:04:00.939Z,1005
2023-03-16T02:05:17.241Z,1005.1
2023-03-16T02:06:33.539Z,1005
2023-03-16T02:07:49.818Z,1005
2023-03-16T02:09:06.121Z,1005.1
2023-03-16T02:10:22.419Z,1005
2023-03-16T02:11:38.714Z,1005
2023-03-16T02:12:55.018Z,1005
2023-03-16T02:14:11.307Z,1005
2023-03-16T02:15:27.605Z,1005
2023-03-16T02:16:42.916Z,1004.9
2023-03-16T02:17:59.208Z,1004.9
2023-03-16T02:19:15.493Z,1004.9
2023-03-16T02:20:31.803Z,1005
2023-03-16T02:21:48.091Z,1005
2023-03-16T02:23:04.387Z,1004.9
2023-03-16T02:24:20.674Z,1005
2023-03-16T02:25:36.968Z,1005
2023-03-16T02:26:53.279Z,1005
2023-03-16T02:28:09.576Z,1005
2023-03-16T02:29:25.864Z,1005
2023-03-16T02:30:42.166Z,1005
2023-03-16T02:31:58.464Z,1004.9
2023-03-16T02:33:13.770Z,1005
2023-03-16T02:34:30.052Z,1005
2023-03-16T02:35:46.346Z,1005
2023-03-16T02:37:02.643Z,1005
2023-03-16T02:38:18.942Z,1005
2023-03-16T02:39:35.240Z,1004.9
2023-03-16T02:40:51.539Z,1005
2023-03-16T02:42:07.835Z,1004.9
2023-03-16T02:43:24.126Z,1005
2023-03-16T02:44:40.434Z,1005
2023-03-16T02:45:56.729Z,1005
2023-03-16T02:47:13.009Z,1005
2023-03-16T02:48:29.312Z,1005
2023-03-16T02:49:44.632Z,1005.1
2023-03-16T02:51:00.917Z,1005
2023-03-16T02:52:17.223Z,1005.1
2023-03-16T02:53:33.510Z,1005.1
2023-03-16T02:56:06.102Z,1005.1
2023-03-16T02:57:22.391Z,1005.1
2023-03-16T02:58:38.694Z,1005.1
2023-03-16T02:59:54.991Z,1005.1
2023-03-16T03:01:11.288Z,1005.1
2023-03-16T03:03:43.870Z,1005.1
2023-03-16T03:05:00.174Z,1005.1
2023-03-16T03:06:15.484Z,1005.1
2023-03-16T03:07:31.767Z,1005.1
2023-03-16T03:08:48.068Z,1005.1
2023-03-16T03:10:04.370Z,1005.2
2023-03-16T03:11:20.651Z,1005.1
2023-03-16T03:12:36.946Z,1005.1
2023-03-16T03:13:53.249Z,1005.1
2023-03-16T03:15:09.556Z,1005.2
2023-03-16T03:16:25.834Z,1005.1
2023-03-16T03:17:42.143Z,1005.2
2023-03-16T03:18:58.432Z,1005.2
2023-03-16T03:20:14.723Z,1005.1
2023-03-16T03:21:31.018Z,1005.2
2023-03-16T03:22:46.330Z,1005.2
2023-03-16T03:24:02.632Z,1005.2
2023-03-16T03:25:18.929Z,1005.2
2023-03-16T03:26:35.227Z,1005.2
2023-03-16T03:27:51.512Z,1005.3
2023-03-16T03:29:07.806Z,1005.3
2023-03-16T03:30:24.100Z,1005.3
2023-03-16T03:31:40.403Z,1005.3
2023-03-16T03:32:56.691Z,1005.3
2023-03-16T03:34:12.989Z,1005.3
2023-03-16T03:35:29.283Z,1005.2
2023-03-16T03:36:45.582Z,1005.3
2023-03-16T03:38:01.873Z,1005.3
2023-03-16T03:39:17.197Z,1005.3
2023-03-16T03:40:33.490Z,1005.3
2023-03-16T03:41:49.793Z,1005.3
2023-03-16T03:43:06.069Z,1005.3
2023-03-16T03:44:22.384Z,1005.3
2023-03-16T03:45:38.665Z,1005.3
2023-03-16T03:46:54.972Z,1005.3
2023-03-16T03:48:11.262Z,1005.3
2023-03-16T03:49:27.557Z,1005.3
2023-03-16T03:50:43.845Z,1005.3
2023-03-16T03:52:00.141Z,1005.3
2023-03-16T03:53:16.438Z,1005.3
2023-03-16T03:54:32.729Z,1005.3
2023-03-16T03:55:48.045Z,1005.3
2023-03-16T03:57:04.344Z,1005.3
2023-03-16T03:58:20.648Z,1005.3
2023-03-16T03:59:36.932Z,1005.3
2023-03-16T04:00:53.237Z,1005.2
2023-03-16T04:02:09.523Z,1005.2
2023-03-16T04:03:25.820Z,1005.2
2023-03-16T04:04:42.125Z,1005.2
2023-03-16T04:05:58.404Z,1005.2
2023-03-16T04:07:14.702Z,1005.2
2023-03-16T04:08:31.003Z,1005.2
2023-03-16T04:09:47.300Z,1005.2
2023-03-16T04:11:03.586Z,1005.2
2023-03-16T04:12:18.901Z,1005.2
2023-03-16T04:13:35.192Z,1005.2
2023-03-16T04:14:51.508Z,1005.2
2023-03-16T04:16:07.793Z,1005.2
2023-03-16T04:17:24.098Z,1005.1
2023-03-16T04:18:40.389Z,1005.2
2023-03-16T04:19:56.683Z,1005.1
2023-03-16T04:22:29.261Z,1005.2
2023-03-16T04:23:45.556Z,1005.2
2023-03-16T04:25:01.856Z,1005.2
2023-03-16T04:26:18.167Z,1005.2
2023-03-16T04:27:34.455Z,1005.2
2023-03-16T04:28:49.759Z,1005.1
2023-03-16T04:30:06.061Z,1005.2
2023-03-16T04:31:22.360Z,1005.2
2023-03-16T04:33:54.952Z,1005.2
2023-03-16T04:35:11.245Z,1005.2
2023-03-16T04:36:27.547Z,1005.2
2023-03-16T04:37:43.825Z,1005.2
2023-03-16T04:39:00.136Z,1005.2
2023-03-16T04:40:16.425Z,1005.2
2023-03-16T04:41:32.711Z,1005.1
2023-03-16T04:42:49.011Z,1005.2
2023-03-16T04:44:05.242Z,1005.2
2023-03-16T04:45:20.576Z,1005.2
2023-03-16T04:46:36.858Z,1005.2
2023-03-16T04:47:53.112Z,1005.2
2023-03-16T04:49:09.421Z,1005.2
2023-03-16T04:50:25.699Z,1005.2
2023-03-16T04:51:41.958Z,1005.2
2023-03-16T04:52:58.210Z,1005.2
2023-03-16T04:54:14.459Z,1005.1
2023-03-16T04:55:30.698Z,1005.2
2023-03-16T04:56:46.938Z,1005.2
2023-03-16T04:58:03.178Z,1005.2
2023-03-16T04:59:19.409Z,1005.2
2023-03-16T05:00:35.655Z,1005.3
2023-03-16T05:01:50.911Z,1005.3
2023-03-16T05:03:07.160Z,1005.2
2023-03-16T05:04:23.409Z,1005.2
2023-03-16T05:05:39.637Z,1005.2
2023-03-16T05:06:54.917Z,1005.2
2023-03-16T05:08:11.138Z,1005.3
2023-03-16T05:09:27.395Z,1005.3
2023-03-16T05:10:43.629Z,1005.3
2023-03-16T05:11:59.877Z,1005.3
2023-03-16T05:13:16.110Z,1005.2
2023-03-16T05:14:32.352Z,1005.2
2023-03-16T05:15:48.594Z,1005.2
2023-03-16T05:17:04.839Z,1005.2
2023-03-16T05:18:21.082Z,1005.2
2023-03-16T05:19:37.318Z,1005.2
2023-03-16T05:20:53.560Z,1005.3
2023-03-16T05:22:09.796Z,1005.3
2023-03-16T05:23:25.052Z,1005.4
2023-03-16T05:24:41.295Z,1005.3
2023-03-16T05:25:57.548Z,1005.4
2023-03-16T05:27:13.779Z,1005.4
2023-03-16T05:28:30.034Z,1005.4
2023-03-16T05:29:46.263Z,1005.3
2023-03-16T05:31:02.511Z,1005.4
2023-03-16T05:32:18.746Z,1005.4
2023-03-16T05:33:34.983Z,1005.4
2023-03-16T05:34:51.233Z,1005.3
2023-03-16T05:36:07.485Z,1005.4
2023-03-16T05:37:23.723Z,1005.4
2023-03-16T05:38:39.967Z,1005.4
2023-03-16T05:39:55.214Z,1005.4
2023-03-16T05:41:11.461Z,1005.4
2023-03-16T05:42:27.710Z,1005.4
2023-03-16T05:43:43.937Z,1005.4
2023-03-16T05:45:00.179Z,1005.4
2023-03-16T05:46:16.434Z,1005.3
2023-03-16T05:47:32.667Z,1005.4
2023-03-16T05:48:48.905Z,1005.4
2023-03-16T05:51:21.389Z,1005.4
2023-03-16T05:52:37.637Z,1005.5
2023-03-16T05:53:53.883Z,1005.5
2023-03-16T05:55:10.113Z,1005.5
2023-03-16T05:56:25.374Z,1005.5
2023-03-16T05:57:41.617Z,1005.5
2023-03-16T05:58:57.862Z,1005.5
2023-03-16T06:00:14.088Z,1005.5
2023-03-16T06:01:30.335Z,1005.5
2023-03-16T06:02:46.591Z,1005.5
2023-03-16T06:04:02.832Z,1005.5
2023-03-16T06:05:19.068Z,1005.5
2023-03-16T06:06:35.307Z,1005.5
2023-03-16T06:07:51.550Z,1005.5
2023-03-16T06:09:07.787Z,1005.5
2023-03-16T06:10:24.021Z,1005.5
2023-03-16T06:11:40.278Z,1005.6
2023-03-16T06:12:55.530Z,1005.6
2023-03-16T06:14:11.769Z,1005.6
2023-03-16T06:15:27.998Z,1005.6
2023-03-16T06:16:44.246Z,1005.6
2023-03-16T06:18:00.498Z,1005.6
2023-03-16T06:19:16.740Z,1005.6
2023-03-16T06:20:32.971Z,1005.5
2023-03-16T06:21:49.209Z,1005.5
2023-03-16T06:23:05.466Z,1005.5
2023-03-16T06:24:21.694Z,1005.5
2023-03-16T06:25:37.937Z,1005.5
2023-03-16T06:26:54.174Z,1005.6
2023-03-16T06:28:10.421Z,1005.6
2023-03-16T06:29:25.686Z,1005.6
2023-03-16T06:30:41.916Z,1005.5
2023-03-16T06:31:58.165Z,1005.6
2023-03-16T06:33:14.405Z,1005.6
2023-03-16T06:34:30.652Z,1005.6
2023-03-16T06:37:03.133Z,1005.6
2023-03-16T06:38:19.358Z,1005.7
2023-03-16T06:39:35.616Z,1005.7
2023-03-16T06:40:51.856Z,1005.7
2023-03-16T06:42:08.086Z,1005.7
2023-03-16T06:43:24.340Z,1005.7
2023-03-16T06:44:40.574Z,1005.6
2023-03-16T06:45:55.829Z,1005.6
2023-03-16T06:47:12.081Z,1005.6
2023-03-16T06:48:28.316Z,1005.7
2023-03-16T06:49:44.565Z,1005.7
2023-03-16T06:51:00.794Z,1005.6
2023-03-16T06:52:17.032Z,1005.7
2023-03-16T06:53:33.286Z,1005.7
2023-03-16T06:54:49.511Z,1005.7
2023-03-16T06:56:05.759Z,1005.6
2023-03-16T06:57:22.005Z,1005.7
2023-03-16T06:58:38.245Z,1005.6
2023-03-16T06:59:54.490Z,1005.6
2023-03-16T07:01:10.717Z,1005.6
2023-03-16T07:02:25.993Z,1005.6
2023-03-16T07:03:42.228Z,1005.7
2023-03-16T07:04:58.467Z,1005.6
2023-03-16T07:07:30.945Z,1005.7
2023-03-16T07:08:47.193Z,1005.7
2023-03-16T07:10:03.433Z,1005.7
2023-03-16T07:11:19.668Z,1005.6
2023-03-16T07:12:35.921Z,1005.6
2023-03-16T07:13:52.164Z,1005.5
2023-03-16T07:15:08.394Z,1005.6
2023-03-16T07:16:24.636Z,1005.7
2023-03-16T07:17:40.883Z,1005.6
2023-03-16T07:18:56.137Z,1005.6
2023-03-16T07:20:12.374Z,1005.6
2023-03-16T07:22:44.868Z,1005.6
2023-03-16T07:24:01.099Z,1005.5
2023-03-16T07:25:17.330Z,1005.7
2023-03-16T07:26:33.577Z,1005.6
2023-03-16T07:27:49.835Z,1005.6
2023-03-16T07:29:06.066Z,1005.6
2023-03-16T07:30:22.297Z,1005.6
2023-03-16T07:31:38.547Z,1005.6
2023-03-16T07:32:54.796Z,1005.7
2023-03-16T07:34:11.037Z,1005.7
2023-03-16T07:35:26.279Z,1005.6
2023-03-16T07:37:58.770Z,1005.7
2023-03-16T07:39:15.013Z,1005.7
2023-03-16T07:40:31.238Z,1005.7
2023-03-16T07:41:47.494Z,1005.7
2023-03-16T07:43:03.729Z,1005.7
2023-03-16T07:44:19.976Z,1005.7
2023-03-16T07:45:36.202Z,1005.7
2023-03-16T07:46:52.458Z,1005.7
2023-03-16T07:48:08.703Z,1005.7
2023-03-16T07:49:24.936Z,1005.7
2023-03-16T07:50:41.168Z,1005.7
2023-03-16T07:51:56.439Z,1005.7
2023-03-16T07:53:12.679Z,1005.7
2023-03-16T07:54:28.908Z,1005.7
2023-03-16T07:55:45.162Z,1005.7
2023-03-16T07:57:01.402Z,1005.7
2023-03-16T07:58:17.638Z,1005.7
2023-03-16T07:59:33.883Z,1005.7
2023-03-16T08:00:50.124Z,1005.8
2023-03-16T08:02:06.366Z,1005.7
2023-03-16T08:03:22.601Z,1005.7
2023-03-16T08:04:38.836Z,1005.7
2023-03-16T08:05:55.087Z,1005.8
2023-03-16T08:07:11.320Z,1005.8
2023-03-16T08:08:26.596Z,1005.7
2023-03-16T08:09:42.829Z,1005.8
2023-03-16T08:10:59.053Z,1005.8
2023-03-16T08:12:15.301Z,1005.8
2023-03-16T08:13:31.554Z,1005.9
2023-03-16T08:14:47.781Z,1005.9
2023-03-16T08:16:04.027Z,1005.9
2023-03-16T08:17:20.273Z,1005.9
2023-03-16T08:18:36.512Z,1005.9
2023-03-16T08:19:52.744Z,1005.9
2023-03-16T08:21:08.997Z,1005.9
2023-03-16T08:23:41.477Z,1005.9
2023-03-16T08:24:56.721Z,1005.9
2023-03-16T08:26:12.969Z,1005.9
2023-03-16T08:27:29.212Z,1005.9
2023-03-16T08:28:45.459Z,1005.8
2023-03-16T08:30:01.704Z,1005.8
2023-03-16T08:31:17.936Z,1005.8
2023-03-16T08:32:34.176Z,1005.9
2023-03-16T08:33:50.415Z,1005.9
2023-03-16T08:35:06.667Z,1005.9
2023-03-16T08:36:22.908Z,1005.9
2023-03-16T08:37:39.147Z,1005.9
2023-03-16T08:38:55.385Z,1005.9
2023-03-16T08:40:11.615Z,1005.9
2023-03-16T08:41:26.875Z,1006
2023-03-16T08:42:43.131Z,1005.9
2023-03-16T08:43:59.358Z,1006
2023-03-16T08:46:31.845Z,1006
2023-03-16T08:47:48.092Z,1005.9
2023-03-16T08:49:04.319Z,1006
2023-03-16T08:50:20.568Z,1006
2023-03-16T08:51:36.799Z,1005.9
2023-03-16T08:52:53.057Z,1005.9
2023-03-16T08:54:09.294Z,1006
2023-03-16T08:55:25.533Z,1006
2023-03-16T08:56:41.775Z,1006
2023-03-16T08:57:58.137Z,1006
2023-03-16T08:59:14.379Z,1006
2023-03-16T09:00:30.606Z,1006
2023-03-16T09:01:46.853Z,1006
2023-03-16T09:03:03.094Z,1006
2023-03-16T09:04:19.345Z,1006
2023-03-16T09:05:35.583Z,1006
2023-03-16T09:06:51.819Z,1006.1
2023-03-16T09:08:08.069Z,1006.1
2023-03-16T09:09:24.303Z,1006.1
2023-03-16T09:10:40.541Z,1006
2023-03-16T09:11:56.788Z,1006.1
2023-03-16T09:13:13.031Z,1006.1
2023-03-16T09:14:28.275Z,1006.1
2023-03-16T09:15:44.525Z,1006.1
2023-03-16T09:17:00.772Z,1006.1
2023-03-16T09:18:17.010Z,1006.1
2023-03-16T09:19:33.247Z,1006.1
2023-03-16T09:20:49.492Z,1006.1
2023-03-16T09:22:04.748Z,1006.1
2023-03-16T09:23:20.996Z,1006.1
2023-03-16T09:24:37.232Z,1006
2023-03-16T09:25:53.472Z,1006.1
2023-03-16T09:27:09.712Z,1006
2023-03-16T09:28:25.960Z,1006
2023-03-16T09:29:42.198Z,1006
2023-03-16T09:30:58.424Z,1006
2023-03-16T09:32:14.666Z,1006
2023-03-16T09:33:30.921Z,1006
2023-03-16T09:34:47.152Z,1005.9
2023-03-16T09:36:03.390Z,1005.9
2023-03-16T09:37:19.639Z,1005.9
2023-03-16T09:39:52.237Z,1005.9
2023-03-16T09:41:08.490Z,1005.9
2023-03-16T09:42:24.718Z,1005.9
2023-03-16T09:43:40.964Z,1005.9
2023-03-16T09:44:57.205Z,1005.9
2023-03-16T09:47:29.675Z,1005.9
2023-03-16T09:48:45.922Z,1005.9
2023-03-16T09:50:02.156Z,1005.9
2023-03-16T09:51:18.410Z,1005.9
2023-03-16T09:52:34.640Z,1005.9
2023-03-16T09:53:50.889Z,1005.9
2023-03-16T09:55:06.138Z,1005.9
2023-03-16T09:56:22.379Z,1005.9
2023-03-16T09:57:38.627Z,1005.9
2023-03-16T09:58:54.862Z,1005.9
2023-03-16T10:00:11.104Z,1005.9
2023-03-16T10:01:27.356Z,1005.8
2023-03-16T10:02:43.581Z,1005.9
2023-03-16T10:03:59.824Z,1005.8
2023-03-16T10:05:16.068Z,1005.8
2023-03-16T10:06:32.304Z,1005.9
2023-03-16T10:07:48.556Z,1005.8
2023-03-16T10:09:04.785Z,1005.8
2023-03-16T10:10:21.030Z,1005.9
2023-03-16T10:11:36.297Z,1005.9
2023-03-16T10:12:52.540Z,1005.8
2023-03-16T10:14:08.778Z,1005.8
2023-03-16T10:15:25.017Z,1005.8
2023-03-16T10:17:57.502Z,1005.8
2023-03-16T10:19:13.729Z,1005.8
2023-03-16T10:20:29.984Z,1005.8
2023-03-16T10:21:46.227Z,1005.8
2023-03-16T10:23:02.458Z,1005.8
2023-03-16T10:25:34.944Z,1005.8
2023-03-16T10:26:51.181Z,1005.8
2023-03-16T10:28:07.532Z,1005.7
2023-03-16T10:29:23.789Z,1005.7
2023-03-16T10:30:40.013Z,1005.7
2023-03-16T10:31:56.261Z,1005.7
2023-03-16T10:33:12.497Z,1005.7
2023-03-16T10:34:28.749Z,1005.6
2023-03-16T10:35:44.990Z,1005.6
2023-03-16T10:37:01.226Z,1005.6
2023-03-16T10:38:17.464Z,1005.6
2023-03-16T10:40:49.956Z,1005.6
2023-03-16T10:42:05.219Z,1005.6
2023-03-16T10:43:21.574Z,1005.6
2023-03-16T10:44:37.813Z,1005.6
2023-03-16T10:45:54.055Z,1005.6
2023-03-16T10:47:10.286Z,1005.6
2023-03-16T10:48:26.537Z,1005.6
2023-03-16T10:49:42.784Z,1005.7
2023-03-16T10:50:59.023Z,1005.6
2023-03-16T10:52:15.256Z,1005.6
2023-03-16T10:53:31.494Z,1005.6
2023-03-16T10:57:20.210Z,1005.7
2023-03-16T10:58:35.476Z,1005.5
2023-03-16T10:59:51.833Z,1005.6
2023-03-16T11:01:08.090Z,1005.5
2023-03-16T11:02:24.333Z,1005.5
2023-03-16T11:03:40.571Z,1005.5
2023-03-16T11:04:56.799Z,1005.5
2023-03-16T11:06:13.036Z,1005.4
2023-03-16T11:07:29.279Z,1005.4
2023-03-16T11:08:45.528Z,1005.4
2023-03-16T11:10:01.762Z,1005.3
2023-03-16T11:11:18.011Z,1005.3
2023-03-16T11:12:33.276Z,1005.4
2023-03-16T11:13:48.531Z,1005.5
2023-03-16T11:15:04.767Z,1005.4
2023-03-16T11:16:20.997Z,1005.4
2023-03-16T11:17:37.238Z,1005.4
2023-03-16T11:18:53.491Z,1005.4
2023-03-16T11:20:09.735Z,1005.3
2023-03-16T11:21:25.965Z,1005.3
2023-03-16T11:22:42.203Z,1005.4
2023-03-16T11:23:58.460Z,1005.3
2023-03-16T11:25:14.697Z,1005.3
2023-03-16T11:26:31.077Z,1005.3
2023-03-16T11:27:47.438Z,1005.3
2023-03-16T11:29:03.677Z,1005.3
2023-03-16T11:30:19.911Z,1005.3
2023-03-16T11:31:36.160Z,1005.2
2023-03-16T11:32:52.395Z,1005.2
2023-03-16T11:34:08.640Z,1005.2
2023-03-16T11:35:24.872Z,1005.2
2023-03-16T11:36:41.123Z,1005.2
2023-03-16T11:37:57.369Z,1005.1
2023-03-16T11:39:13.596Z,1005.1
2023-03-16T11:40:29.843Z,1005.1
2023-03-16T11:41:46.075Z,1005.2
2023-03-16T11:43:02.318Z,1005.2
2023-03-16T11:44:17.586Z,1005.1
2023-03-16T11:45:33.831Z,1005.1
2023-03-16T11:46:50.065Z,1005.2
2023-03-16T11:48:06.304Z,1005.2
2023-03-16T11:49:22.550Z,1005.1
2023-03-16T11:50:38.785Z,1005
2023-03-16T11:51:55.016Z,1005
2023-03-16T11:53:11.257Z,1005
2023-03-16T11:54:27.503Z,1005
2023-03-16T11:55:43.743Z,1005
2023-03-16T11:56:59.994Z,1005
2023-03-16T11:58:16.226Z,1005
2023-03-16T11:59:32.473Z,1004.9
2023-03-16T12:00:48.707Z,1004.9
2023-03-16T12:02:03.973Z,1004.9
2023-03-16T12:03:20.204Z,1004.9
2023-03-16T12:04:36.457Z,1004.9
2023-03-16T12:05:52.691Z,1004.9
2023-03-16T12:07:08.935Z,1004.9
2023-03-16T12:09:41.413Z,1004.8
2023-03-16T12:12:13.881Z,1004.8
2023-03-16T12:13:30.130Z,1004.8
2023-03-16T12:14:46.375Z,1004.7
2023-03-16T12:16:02.620Z,1004.7
2023-03-16T12:17:18.853Z,1004.7
2023-03-16T12:18:34.119Z,1004.7
2023-03-16T12:19:50.356Z,1004.7
2023-03-16T12:21:06.581Z,1004.6
2023-03-16T12:22:22.826Z,1004.6
2023-03-16T12:23:39.072Z,1004.5
2023-03-16T12:24:55.309Z,1004.6
2023-03-16T12:26:11.562Z,1004.6
2023-03-16T12:27:27.785Z,1004.6
2023-03-16T12:28:44.031Z,1004.6
2023-03-16T12:30:00.284Z,1004.5
2023-03-16T12:31:16.525Z,1004.5
2023-03-16T12:32:32.749Z,1004.5
2023-03-16T12:33:49.005Z,1004.4
2023-03-16T12:35:04.258Z,1004.5
2023-03-16T12:36:20.504Z,1004.4
2023-03-16T12:37:36.746Z,1004.4
2023-03-16T12:38:52.982Z,1004.4
2023-03-16T12:40:09.213Z,1004.3
2023-03-16T12:41:25.467Z,1004.3
2023-03-16T12:42:41.693Z,1004.3
2023-03-16T12:43:57.945Z,1004.3
2023-03-16T12:45:14.190Z,1004.2
2023-03-16T12:46:30.426Z,1004.2
2023-03-16T12:47:46.653Z,1004.3
2023-03-16T12:49:02.900Z,1004.2
2023-03-16T12:50:19.144Z,1004.2
2023-03-16T12:51:34.406Z,1004.1
2023-03-16T12:52:50.650Z,1004.1
2023-03-16T12:54:06.891Z,1004.1
2023-03-16T12:55:23.113Z,1004.1
2023-03-16T12:56:39.370Z,1004
2023-03-16T12:57:55.604Z,1004
2023-03-16T12:59:11.836Z,1004
2023-03-16T13:00:28.090Z,1003.9
2023-03-16T13:01:44.329Z,1004
2023-03-16T13:03:00.563Z,1004
2023-03-16T13:04:16.809Z,1004
2023-03-16T13:05:33.037Z,1003.9
2023-03-16T13:06:49.297Z,1003.9
2023-03-16T13:09:20.777Z,1003.9
2023-03-16T13:10:37.028Z,1003.9
2023-03-16T13:11:53.276Z,1003.9
2023-03-16T13:13:09.519Z,1003.9
2023-03-16T13:14:25.753Z,1004
2023-03-16T13:15:41.991Z,1003.9
2023-03-16T13:16:58.220Z,1003.8
2023-03-16T13:18:14.477Z,1003.8
2023-03-16T13:19:30.702Z,1003.8
2023-03-16T13:20:46.943Z,1003.9
2023-03-16T13:22:03.185Z,1003.8
2023-03-16T13:23:19.442Z,1003.8
2023-03-16T13:24:34.691Z,1003.8
2023-03-16T13:25:50.921Z,1003.8
2023-03-16T13:27:07.181Z,1003.8
2023-03-16T13:28:23.409Z,1003.8
2023-03-16T13:29:39.642Z,1003.7
2023-03-16T13:30:55.886Z,1003.8
2023-03-16T13:32:12.134Z,1003.8
2023-03-16T13:33:28.383Z,1003.7
2023-03-16T13:34:44.619Z,1003.7
2023-03-16T13:36:00.855Z,1003.7
2023-03-16T13:37:16.120Z,1003.7
2023-03-16T13:38:32.356Z,1003.7
2023-03-16T13:39:48.595Z,1003.6
2023-03-16T13:41:04.834Z,1003.7
2023-03-16T13:42:21.071Z,1003.7
2023-03-16T13:43:37.326Z,1003.7
2023-03-16T13:44:53.550Z,1003.7
2023-03-16T13:46:09.803Z,1003.7
2023-03-16T13:47:26.049Z,1003.7
2023-03-16T13:48:42.280Z,1003.7
2023-03-16T13:49:58.511Z,1003.7
2023-03-16T13:51:14.763Z,1003.7
2023-03-16T13:52:30.994Z,1003.7
2023-03-16T13:53:46.268Z,1003.7
2023-03-16T13:55:02.508Z,1003.7
2023-03-16T13:56:18.733Z,1003.8
2023-03-16T13:58:51.214Z,1003.8
2023-03-16T14:00:07.457Z,1003.8
2023-03-16T14:01:23.707Z,1003.7
2023-03-16T14:02:39.947Z,1003.7
2023-03-16T14:03:56.188Z,1003.8
2023-03-16T14:05:12.415Z,1003.7
2023-03-16T14:06:28.663Z,1003.7
2023-03-16T14:07:44.896Z,1003.7
2023-03-16T14:09:01.130Z,1003.7
2023-03-16T14:10:16.393Z,1003.7
2023-03-16T14:11:32.646Z,1003.8
2023-03-16T14:12:48.883Z,1003.8
2023-03-16T14:14:05.117Z,1003.8
2023-03-16T14:15:21.362Z,1003.8
2023-03-16T14:16:37.592Z,1003.7
2023-03-16T14:17:53.831Z,1003.7
2023-03-16T14:19:10.083Z,1003.7
2023-03-16T14:20:26.322Z,1003.6
2023-03-16T14:21:42.559Z,1003.6
2023-03-16T14:22:58.793Z,1003.7
2023-03-16T14:24:15.035Z,1003.7
2023-03-16T14:26:47.528Z,1003.7
2023-03-16T14:28:02.769Z,1003.6
2023-03-16T14:29:19.015Z,1003.5
2023-03-16T14:30:35.268Z,1003.4
2023-03-16T14:31:51.504Z,1003.4
2023-03-16T14:33:07.746Z,1003.3
2023-03-16T14:34:23.982Z,1003.3
2023-03-16T14:35:40.218Z,1003.3
2023-03-16T14:36:56.454Z,1003.3
2023-03-16T14:38:12.698Z,1003.3
2023-03-16T14:39:28.945Z,1003.2
2023-03-16T14:40:45.190Z,1003.2
2023-03-16T14:42:01.417Z,1003.2
2023-03-16T14:43:17.655Z,1003.2
2023-03-16T14:44:32.928Z,1003.1
2023-03-16T14:45:49.171Z,1003.2
2023-03-16T14:47:05.393Z,1003.1
2023-03-16T14:48:21.634Z,1003.1
2023-03-16T14:49:37.876Z,1003.1
2023-03-16T14:50:54.123Z,1003.1
2023-03-16T14:52:10.358Z,1003.1
2023-03-16T14:53:26.611Z,1003.1
2023-03-16T14:54:42.852Z,1003.1
2023-03-16T14:55:59.076Z,1003.1
2023-03-16T14:57:15.322Z,1003.1
2023-03-16T14:58:31.574Z,1003
2023-03-16T14:59:47.799Z,1003
2023-03-16T15:01:03.063Z,1003
2023-03-16T15:02:19.310Z,1002.9
2023-03-16T15:03:35.536Z,1002.9
2023-03-16T15:04:51.786Z,1002.8
2023-03-16T15:06:08.030Z,1002.8
2023-03-16T15:07:24.267Z,1002.8
2023-03-16T15:08:40.497Z,1002.8
2023-03-16T15:09:56.747Z,1002.8
2023-03-16T15:11:12.984Z,1002.8
2023-03-16T15:12:29.226Z,1002.7
2023-03-16T15:13:45.474Z,1002.7
2023-03-16T15:15:01.703Z,1002.7
2023-03-16T15:16:17.947Z,1002.7
2023-03-16T15:17:33.199Z,1002.7
2023-03-16T15:18:49.448Z,1002.7
2023-03-16T15:20:05.676Z,1002.6
2023-03-16T15:21:21.921Z,1002.6
2023-03-16T15:22:38.155Z,1002.6
2023-03-16T15:23:54.407Z,1002.6
2023-03-16T15:25:10.652Z,1002.5
2023-03-16T15:26:26.881Z,1002.5
2023-03-16T15:27:43.126Z,1002.6
2023-03-16T15:28:59.369Z,1002.5
2023-03-16T15:30:15.612Z,1002.5
2023-03-16T15:31:31.852Z,1002.6
2023-03-16T15:32:48.088Z,1002.6
2023-03-16T15:34:03.332Z,1002.6
2023-03-16T15:35:19.572Z,1002.6
2023-03-16T15:36:35.825Z,1002.6
2023-03-16T15:37:52.054Z,1002.6
2023-03-16T15:39:08.307Z,1002.6
2023-03-16T15:40:24.539Z,1002.6
2023-03-16T15:41:40.777Z,1002.6
2023-03-16T15:42:57.032Z,1002.6
2023-03-16T15:45:29.504Z,1002.6
2023-03-16T15:46:45.748Z,1002.6
2023-03-16T15:48:01.978Z,1002.6
2023-03-16T15:49:18.223Z,1002.6
2023-03-16T15:50:33.477Z,1002.6
2023-03-16T15:51:49.713Z,1002.6
2023-03-16T15:53:05.963Z,1002.7
2023-03-16T15:54:22.201Z,1002.6
2023-03-16T15:55:38.448Z,1002.6
2023-03-16T15:56:54.669Z,1002.7
2023-03-16T15:58:10.925Z,1002.7
2023-03-16T15:59:27.162Z,1002.6
2023-03-16T16:00:43.400Z,1002.6
2023-03-16T16:01:59.644Z,1002.6
2023-03-16T16:03:15.877Z,1002.6
2023-03-16T16:05:48.362Z,1002.5
2023-03-16T16:07:03.616Z,1002.4
2023-03-16T16:08:19.853Z,1002.5
2023-03-16T16:09:36.100Z,1002.5
2023-03-16T16:10:52.331Z,1002.5
2023-03-16T16:12:08.574Z,1002.5
2023-03-16T16:13:24.822Z,1002.5
2023-03-16T16:15:57.309Z,1002.5
2023-03-16T16:17:13.535Z,1002.5
2023-03-16T16:18:29.785Z,1002.6
2023-03-16T16:19:46.010Z,1002.5
2023-03-16T16:21:02.269Z,1002.6
2023-03-16T16:22:18.498Z,1002.5
2023-03-16T16:23:33.763Z,1002.5
2023-03-16T16:24:49.996Z,1002.4
2023-03-16T16:26:06.230Z,1002.4
2023-03-16T16:27:22.487Z,1002.4
2023-03-16T16:28:38.719Z,1002.4
2023-03-16T16:31:11.195Z,1002.4
2023-03-16T16:32:26.473Z,1002.4
2023-03-16T16:33:41.728Z,1002.4
2023-03-16T16:34:57.971Z,1002.4
2023-03-16T16:36:14.196Z,1002.4
2023-03-16T16:37:30.450Z,1002.4
2023-03-16T16:38:46.681Z,1002.4
2023-03-16T16:40:02.924Z,1002.4